createdAt,value
2018-07-11T00:00:00.106Z,67.58
2018-07-11T00:00:40.630Z,68.06
2018-07-11T00:01:21.149Z,67.1
2018-07-11T00:02:01.669Z,67.77
2018-07-11T00:02:42.193Z,67.68
2018-07-11T00:03:22.717Z,68.26
2018-07-11T00:04:03.244Z,68.54
2018-07-11T00:04:43.773Z,68.35
2018-07-11T00:05:24.295Z,68.26
2018-07-11T00:06:04.815Z,68.54
2018-07-11T00:06:45.351Z,68.16
2018-07-11T00:07:25.890Z,68.16
2018-07-11T00:08:06.396Z,68.26
2018-07-11T00:08:46.912Z,68.06
2018-07-11T00:09:27.426Z,68.06
2018-07-11T00:10:07.954Z,67.52
2018-07-11T00:10:48.483Z,67.13
2018-07-11T00:11:29.019Z,67.13
2018-07-11T00:12:09.532Z,66.75
2018-07-11T00:12:50.060Z,67.23
2018-07-11T00:13:30.590Z,66.75
2018-07-11T00:14:11.126Z,66.94
2018-07-11T00:14:51.655Z,66.65
2018-07-11T00:15:32.187Z,66.94
2018-07-11T00:16:12.712Z,66.75
2018-07-11T00:16:53.232Z,66.85
2018-07-11T00:17:33.759Z,66.36
2018-07-11T00:18:14.277Z,67.03
2018-07-11T00:18:54.792Z,67.13
2018-07-11T00:19:35.329Z,67.77
2018-07-11T00:20:15.859Z,67.77
2018-07-11T00:20:56.395Z,68.06
2018-07-11T00:21:36.935Z,68.19
2018-07-11T00:22:17.462Z,67.9
2018-07-11T00:22:57.986Z,68
2018-07-11T00:23:38.520Z,67.81
2018-07-11T00:24:19.052Z,67.13
2018-07-11T00:24:59.569Z,67.42
2018-07-11T00:25:40.107Z,67.13
2018-07-11T00:26:20.630Z,67.03
2018-07-11T00:27:01.171Z,67.81
2018-07-11T00:27:41.693Z,68.06
2018-07-11T00:28:22.219Z,68
2018-07-11T00:29:02.738Z,67.81
2018-07-11T00:29:43.270Z,67.9
2018-07-11T00:30:23.785Z,67.9
2018-07-11T00:31:04.312Z,67.9
2018-07-11T00:31:44.827Z,67.9
2018-07-11T00:32:25.352Z,67.71
2018-07-11T00:33:05.882Z,67.03
2018-07-11T00:33:46.411Z,66.94
2018-07-11T00:34:26.932Z,67.33
2018-07-11T00:35:07.454Z,67.42
2018-07-11T00:35:47.993Z,66.85
2018-07-11T00:36:28.545Z,66.46
2018-07-11T00:37:09.106Z,66.65
2018-07-11T00:37:49.589Z,66.75
2018-07-11T00:38:30.114Z,66.75
2018-07-11T00:39:10.632Z,67.03
2018-07-11T00:39:51.153Z,66.94
2018-07-11T00:40:31.669Z,66.36
2018-07-11T00:41:12.189Z,66.75
2018-07-11T00:41:52.705Z,66.94
2018-07-11T00:42:33.225Z,67.33
2018-07-11T00:43:13.749Z,67.23
2018-07-11T00:43:54.267Z,67.71
2018-07-11T00:44:34.779Z,67.87
2018-07-11T00:45:15.301Z,67.71
2018-07-11T00:45:55.822Z,68
2018-07-11T00:46:36.351Z,68.1
2018-07-11T00:47:16.892Z,67.9
2018-07-11T00:47:57.424Z,68
2018-07-11T00:48:37.952Z,68.1
2018-07-11T00:49:18.485Z,68.29
2018-07-11T00:49:59.030Z,68.48
2018-07-11T00:50:39.554Z,68.19
2018-07-11T00:51:20.072Z,68.29
2018-07-11T00:52:00.603Z,68.48
2018-07-11T00:52:41.127Z,68.54
2018-07-11T00:53:21.680Z,68.54
2018-07-11T00:54:02.200Z,68.35
2018-07-11T00:54:42.725Z,68.44
2018-07-11T00:55:23.247Z,68.64
2018-07-11T00:56:03.768Z,68.84
2018-07-11T00:56:44.313Z,69.22
2018-07-11T00:57:24.837Z,69.12
2018-07-11T00:58:05.388Z,68.93
2018-07-11T00:58:45.918Z,68.93
2018-07-11T01:01:04.480Z,68.54
2018-07-11T01:01:45.012Z,69.02
2018-07-11T01:02:25.535Z,69.22
2018-07-11T01:03:06.077Z,69.12
2018-07-11T01:03:46.607Z,69.12
2018-07-11T01:04:27.135Z,68.93
2018-07-11T01:05:07.652Z,69.02
2018-07-11T01:05:48.166Z,69.22
2018-07-11T01:06:28.694Z,68.93
2018-07-11T01:07:09.212Z,69.7
2018-07-11T01:07:49.736Z,69.12
2018-07-11T01:08:30.250Z,69.22
2018-07-11T01:09:10.776Z,68.84
2018-07-11T01:09:51.304Z,69.79
2018-07-11T01:10:31.824Z,69.51
2018-07-11T01:11:12.348Z,69.79
2018-07-11T01:11:52.863Z,69.76
2018-07-11T01:12:33.379Z,69.99
2018-07-11T01:13:13.909Z,70.53
2018-07-11T01:13:54.444Z,69.89
2018-07-11T01:14:34.959Z,70.37
2018-07-11T01:15:15.469Z,69.89
2018-07-11T01:15:55.989Z,69.85
2018-07-11T01:16:36.508Z,69.79
2018-07-11T01:17:17.031Z,69.99
2018-07-11T01:17:57.574Z,70.37
2018-07-11T01:18:38.094Z,70.09
2018-07-11T01:19:18.618Z,69.7
2018-07-11T01:19:59.158Z,69.89
2018-07-11T01:20:39.672Z,69.89
2018-07-11T01:21:20.196Z,69.99
2018-07-11T01:22:00.722Z,69.79
2018-07-11T01:22:41.249Z,70.09
2018-07-11T01:23:21.768Z,70.76
2018-07-11T01:24:02.293Z,70.09
2018-07-11T01:24:42.803Z,70.28
2018-07-11T01:25:23.332Z,69.51
2018-07-11T01:26:03.852Z,69.79
2018-07-11T01:26:45.234Z,69.6
2018-07-11T01:27:25.766Z,69.6
2018-07-11T01:28:06.273Z,69.7
2018-07-11T01:28:46.869Z,69.7
2018-07-11T01:29:27.383Z,69.79
2018-07-11T01:30:07.903Z,70.28
2018-07-11T01:30:48.407Z,70.28
2018-07-11T01:31:28.918Z,70.86
2018-07-11T01:32:09.441Z,70.47
2018-07-11T01:32:49.962Z,70.28
2018-07-11T01:33:30.475Z,71.24
2018-07-11T01:34:10.993Z,70.28
2018-07-11T01:34:51.512Z,70.76
2018-07-11T01:35:32.031Z,70.56
2018-07-11T01:36:12.546Z,70.72
2018-07-11T01:36:53.061Z,70.43
2018-07-11T01:37:33.584Z,70.47
2018-07-11T01:38:14.090Z,70.28
2018-07-11T01:38:54.606Z,70.47
2018-07-11T01:39:35.132Z,70.56
2018-07-11T01:40:15.651Z,70.18
2018-07-11T01:40:56.166Z,70.28
2018-07-11T01:41:36.686Z,70.86
2018-07-11T01:42:17.213Z,70.37
2018-07-11T01:42:57.744Z,71.14
2018-07-11T01:43:38.268Z,71.3
2018-07-11T01:44:18.784Z,71.2
2018-07-11T01:44:59.290Z,71.14
2018-07-11T01:45:39.824Z,71.24
2018-07-11T01:46:20.354Z,70.95
2018-07-11T01:47:00.879Z,71.14
2018-07-11T01:47:41.392Z,71.2
2018-07-11T01:48:21.914Z,71.01
2018-07-11T01:49:02.442Z,71.01
2018-07-11T01:49:42.952Z,71.24
2018-07-11T01:50:23.465Z,71.24
2018-07-11T01:51:04.001Z,71.34
2018-07-11T01:51:44.522Z,70.95
2018-07-11T01:52:25.038Z,70.56
2018-07-11T01:53:05.548Z,70.47
2018-07-11T01:53:46.073Z,70.76
2018-07-11T01:54:27.256Z,71.24
2018-07-11T01:55:07.775Z,71.2
2018-07-11T01:55:48.309Z,71.34
2018-07-11T01:56:28.824Z,71.24
2018-07-11T01:57:09.370Z,71.04
2018-07-11T01:57:49.900Z,70.95
2018-07-11T01:58:30.422Z,71.24
2018-07-11T01:59:10.957Z,70.95
2018-07-11T01:59:51.483Z,71.34
2018-07-11T02:00:31.996Z,71.24
2018-07-11T02:01:12.517Z,71.34
2018-07-11T02:01:53.037Z,71.34
2018-07-11T02:02:33.563Z,71.4
2018-07-11T02:03:14.091Z,71.24
2018-07-11T02:03:54.633Z,71.34
2018-07-11T02:04:35.147Z,71.24
2018-07-11T02:05:15.658Z,71.34
2018-07-11T02:05:56.180Z,71.24
2018-07-11T02:06:36.708Z,71.24
2018-07-11T02:07:17.254Z,71.24
2018-07-11T02:07:57.768Z,71.14
2018-07-11T02:08:38.293Z,71.04
2018-07-11T02:09:18.816Z,71.14
2018-07-11T02:09:59.338Z,71.24
2018-07-11T02:10:39.855Z,71.24
2018-07-11T02:11:20.375Z,70.86
2018-07-11T02:12:00.900Z,71.24
2018-07-11T02:12:41.413Z,71.4
2018-07-11T02:13:21.954Z,71.88
2018-07-11T02:14:02.467Z,71.43
2018-07-11T02:14:42.987Z,71.53
2018-07-11T02:15:23.503Z,71.34
2018-07-11T02:16:04.017Z,71.14
2018-07-11T02:16:44.541Z,71.62
2018-07-11T02:17:25.082Z,71.43
2018-07-11T02:18:05.611Z,71.88
2018-07-11T02:18:46.133Z,71.97
2018-07-11T02:19:26.658Z,72.2
2018-07-11T02:20:07.180Z,71.72
2018-07-11T02:20:47.712Z,71.91
2018-07-11T02:21:28.233Z,71.78
2018-07-11T02:22:08.758Z,71.72
2018-07-11T02:22:49.273Z,72.01
2018-07-11T02:23:29.821Z,72.07
2018-07-11T02:24:10.324Z,72.39
2018-07-11T02:24:50.851Z,72.74
2018-07-11T02:25:31.382Z,72.45
2018-07-11T02:26:11.912Z,72.65
2018-07-11T02:26:52.420Z,72.74
2018-07-11T02:27:32.931Z,72.07
2018-07-11T02:28:13.457Z,72.36
2018-07-11T02:28:53.968Z,72.55
2018-07-11T02:29:34.474Z,72.45
2018-07-11T02:30:15.000Z,72.74
2018-07-11T02:30:55.523Z,72.55
2018-07-11T02:31:36.037Z,72.36
2018-07-11T02:32:16.557Z,72.65
2018-07-11T02:32:57.076Z,72.74
2018-07-11T02:33:37.602Z,72.74
2018-07-11T02:34:18.112Z,72.84
2018-07-11T02:34:58.637Z,72.84
2018-07-11T02:35:39.166Z,72.84
2018-07-11T02:36:19.685Z,72.74
2018-07-11T02:37:00.215Z,72.65
2018-07-11T02:37:40.743Z,72.78
2018-07-11T02:38:21.268Z,71.53
2018-07-11T02:39:01.798Z,71.62
2018-07-11T02:39:42.305Z,71.43
2018-07-11T02:40:22.810Z,72.68
2018-07-11T02:41:03.328Z,72.55
2018-07-11T02:41:43.851Z,72.59
2018-07-11T02:42:24.372Z,72.88
2018-07-11T02:43:04.886Z,72.84
2018-07-11T02:43:45.400Z,72.74
2018-07-11T02:44:25.939Z,72.74
2018-07-11T02:45:06.455Z,72.55
2018-07-11T02:45:46.974Z,72.59
2018-07-11T02:46:27.515Z,72.2
2018-07-11T02:47:08.061Z,72.2
2018-07-11T02:47:48.575Z,72.11
2018-07-11T02:48:29.113Z,71.88
2018-07-11T02:49:09.634Z,72.55
2018-07-11T02:49:50.160Z,72.39
2018-07-11T02:50:30.688Z,71.81
2018-07-11T02:51:11.203Z,72.68
2018-07-11T02:51:51.723Z,72.68
2018-07-11T02:52:32.245Z,72.78
2018-07-11T02:53:12.765Z,72.11
2018-07-11T02:53:53.289Z,71.81
2018-07-11T02:54:33.816Z,72.11
2018-07-11T02:55:14.349Z,72.45
2018-07-11T02:55:54.867Z,72.74
2018-07-11T02:56:35.386Z,73.03
2018-07-11T02:57:15.906Z,72.94
2018-07-11T02:57:56.426Z,72.78
2018-07-11T02:58:36.946Z,72.65
2018-07-11T02:59:17.460Z,72.94
2018-07-11T02:59:57.991Z,73.22
2018-07-11T03:00:38.608Z,73.61
2018-07-11T03:01:19.108Z,73.03
2018-07-11T03:01:59.627Z,73.32
2018-07-11T03:02:40.147Z,73.22
2018-07-11T03:03:20.673Z,73.13
2018-07-11T03:04:01.193Z,73.42
2018-07-11T03:04:41.714Z,73.32
2018-07-11T03:05:22.235Z,73.13
2018-07-11T03:06:02.763Z,73.32
2018-07-11T03:06:43.288Z,73.32
2018-07-11T03:07:23.805Z,73.42
2018-07-11T03:08:04.337Z,73.55
2018-07-11T03:08:44.869Z,73.03
2018-07-11T03:09:25.391Z,73.32
2018-07-11T03:10:05.910Z,73.42
2018-07-11T03:10:46.428Z,73.22
2018-07-11T03:11:26.956Z,73.51
2018-07-11T03:12:07.478Z,73.32
2018-07-11T03:12:48.012Z,73.13
2018-07-11T03:13:28.521Z,73.61
2018-07-11T03:14:09.049Z,73.99
2018-07-11T03:14:49.588Z,73.61
2018-07-11T03:15:30.105Z,73.42
2018-07-11T03:16:10.636Z,73.71
2018-07-11T03:16:51.156Z,73.42
2018-07-11T03:17:31.673Z,73.42
2018-07-11T03:18:12.203Z,73.36
2018-07-11T03:18:52.728Z,73.55
2018-07-11T03:19:33.264Z,73.46
2018-07-11T03:20:13.778Z,73.03
2018-07-11T03:20:54.314Z,73.9
2018-07-11T03:21:34.831Z,74.09
2018-07-11T03:22:15.356Z,73.9
2018-07-11T03:22:55.878Z,73.46
2018-07-11T03:23:36.406Z,73.71
2018-07-11T03:24:16.916Z,73.8
2018-07-11T03:24:57.445Z,74.38
2018-07-11T03:25:37.973Z,74.57
2018-07-11T03:26:18.496Z,74.29
2018-07-11T03:26:59.021Z,73.61
2018-07-11T03:27:39.538Z,73.51
2018-07-11T03:28:20.059Z,73.22
2018-07-11T03:29:00.577Z,74.09
2018-07-11T03:29:41.107Z,73.61
2018-07-11T03:30:21.650Z,73.61
2018-07-11T03:31:02.191Z,73.94
2018-07-11T03:31:42.710Z,73.36
2018-07-11T03:32:23.261Z,73.07
2018-07-11T03:33:03.742Z,73.74
2018-07-11T03:33:44.267Z,73.61
2018-07-11T03:34:24.796Z,73.07
2018-07-11T03:35:05.321Z,73.07
2018-07-11T03:35:45.839Z,73.26
2018-07-11T03:36:26.363Z,73.84
2018-07-11T03:37:06.877Z,74.19
2018-07-11T03:37:47.393Z,73.32
2018-07-11T03:38:27.953Z,74.09
2018-07-11T03:39:08.466Z,73.8
2018-07-11T03:39:48.987Z,74.29
2018-07-11T03:40:29.512Z,74.19
2018-07-11T03:41:10.015Z,74.19
2018-07-11T03:41:50.528Z,74.48
2018-07-11T03:42:31.065Z,74.19
2018-07-11T03:43:11.571Z,73.71
2018-07-11T03:43:52.081Z,73.9
2018-07-11T03:44:32.611Z,74.19
2018-07-11T03:45:13.141Z,74.09
2018-07-11T03:45:53.666Z,74.51
2018-07-11T03:46:34.190Z,74.19
2018-07-11T03:47:14.727Z,73.71
2018-07-11T03:47:55.265Z,74.67
2018-07-11T03:48:35.770Z,73.99
2018-07-11T03:49:16.303Z,74.38
2018-07-11T03:49:56.823Z,74.67
2018-07-11T03:50:37.350Z,74.19
2018-07-11T03:51:17.890Z,74.13
2018-07-11T03:51:59.751Z,74.57
2018-07-11T03:52:40.878Z,74.67
2018-07-11T03:53:21.220Z,74.41
2018-07-11T03:54:01.690Z,73.9
2018-07-11T03:54:42.205Z,74.38
2018-07-11T03:55:22.720Z,74.13
2018-07-11T03:56:03.246Z,74.19
2018-07-11T03:56:43.769Z,73.99
2018-07-11T03:57:24.290Z,74.57
2018-07-11T03:58:04.858Z,74.13
2018-07-11T03:58:45.373Z,73.65
2018-07-11T03:59:25.873Z,73.74
2018-07-11T04:00:06.396Z,74.41
2018-07-11T04:00:46.892Z,74.51
2018-07-11T04:01:27.524Z,74.48
2018-07-11T04:02:07.993Z,73.99
2018-07-11T04:02:48.484Z,74.57
2018-07-11T04:03:29.025Z,74.57
2018-07-11T04:04:09.538Z,74.51
2018-07-11T04:04:50.117Z,74.57
2018-07-11T04:05:30.588Z,74.48
2018-07-11T04:06:11.138Z,74.09
2018-07-11T04:06:51.617Z,73.8
2018-07-11T04:07:32.160Z,73.99
2018-07-11T04:08:12.669Z,74.67
2018-07-11T04:08:53.186Z,74.48
2018-07-11T04:09:33.704Z,75.05
2018-07-11T04:10:14.202Z,75.05
2018-07-11T04:10:54.705Z,75.05
2018-07-11T04:11:35.220Z,75.15
2018-07-11T04:12:15.746Z,75.05
2018-07-11T04:12:56.289Z,75.24
2018-07-11T04:13:36.810Z,75.44
2018-07-11T04:14:17.328Z,74.96
2018-07-11T04:14:57.837Z,74.86
2018-07-11T04:15:38.353Z,74.51
2018-07-11T04:16:18.874Z,74.67
2018-07-11T04:16:59.406Z,74.61
2018-07-11T04:17:39.929Z,74.51
2018-07-11T04:18:20.480Z,74.22
2018-07-11T04:19:01.024Z,74.51
2018-07-11T04:19:41.519Z,74.13
2018-07-11T04:20:22.041Z,74.51
2018-07-11T04:21:02.564Z,73.65
2018-07-11T04:21:43.086Z,73.36
2018-07-11T04:22:23.609Z,73.84
2018-07-11T04:23:04.141Z,73.55
2018-07-11T04:23:44.678Z,73.55
2018-07-11T04:24:25.190Z,73.74
2018-07-11T04:25:05.707Z,73.65
2018-07-11T04:25:46.220Z,74.22
2018-07-11T04:26:26.733Z,74.32
2018-07-11T04:27:07.267Z,74.32
2018-07-11T04:27:47.782Z,74.32
2018-07-11T04:28:28.318Z,74.51
2018-07-11T04:29:08.846Z,74.41
2018-07-11T04:29:49.369Z,74.41
2018-07-11T04:30:29.894Z,74.22
2018-07-11T04:31:10.419Z,74.61
2018-07-11T04:31:50.946Z,73.94
2018-07-11T04:32:31.464Z,73.94
2018-07-11T04:33:11.991Z,74.57
2018-07-11T04:33:52.523Z,74.51
2018-07-11T04:34:33.094Z,74.48
2018-07-11T04:35:13.577Z,74.41
2018-07-11T04:35:54.100Z,74.51
2018-07-11T04:36:34.631Z,74.38
2018-07-11T04:37:15.125Z,74.76
2018-07-11T04:37:55.643Z,74.96
2018-07-11T04:38:36.166Z,75.24
2018-07-11T04:39:16.680Z,74.96
2018-07-11T04:39:57.199Z,74.8
2018-07-11T04:40:37.713Z,74.86
2018-07-11T04:41:18.250Z,74.96
2018-07-11T04:41:58.767Z,74.9
2018-07-11T04:42:39.293Z,74.96
2018-07-11T04:43:19.795Z,75.44
2018-07-11T04:44:00.325Z,75.05
2018-07-11T04:44:40.870Z,75.09
2018-07-11T04:45:21.412Z,74.96
2018-07-11T04:46:01.931Z,75.34
2018-07-11T04:46:42.471Z,75.15
2018-07-11T04:47:23.016Z,74.86
2018-07-11T04:48:03.527Z,74.8
2018-07-11T04:48:44.056Z,75.09
2018-07-11T04:49:24.580Z,74.22
2018-07-11T04:50:05.108Z,75.05
2018-07-11T04:50:45.632Z,74.99
2018-07-11T04:51:26.157Z,74.8
2018-07-11T04:52:06.683Z,75.24
2018-07-11T04:52:47.309Z,74.96
2018-07-11T04:53:27.782Z,74.99
2018-07-11T04:54:08.309Z,74.8
2018-07-11T04:54:48.835Z,74.61
2018-07-11T04:55:29.356Z,74.41
2018-07-11T04:56:09.878Z,74.51
2018-07-11T04:56:50.412Z,74.96
2018-07-11T04:57:30.956Z,74.99
2018-07-11T04:58:11.467Z,75.19
2018-07-11T04:58:52.032Z,74.61
2018-07-11T04:59:32.508Z,74.03
2018-07-11T05:00:13.036Z,74.61
2018-07-11T05:00:53.557Z,74.61
2018-07-11T05:01:34.070Z,73.94
2018-07-11T05:02:14.601Z,74.51
2018-07-11T05:02:55.118Z,73.74
2018-07-11T05:03:35.641Z,74.41
2018-07-11T05:04:16.183Z,74.13
2018-07-11T05:04:56.717Z,74.71
2018-07-11T05:05:37.245Z,74.51
2018-07-11T05:06:17.765Z,74.51
2018-07-11T05:06:58.282Z,74.41
2018-07-11T05:07:38.792Z,74.61
2018-07-11T05:08:19.316Z,74.71
2018-07-11T05:08:59.830Z,74.61
2018-07-11T05:09:40.349Z,74.71
2018-07-11T05:10:20.856Z,74.99
2018-07-11T05:11:01.451Z,74.65
2018-07-11T05:11:41.911Z,74.51
2018-07-11T05:12:22.450Z,74.71
2018-07-11T05:13:02.964Z,74.36
2018-07-11T05:13:43.506Z,73.78
2018-07-11T05:14:24.011Z,73.68
2018-07-11T05:15:04.524Z,73.78
2018-07-11T05:15:45.032Z,73.68
2018-07-11T05:16:25.538Z,73.97
2018-07-11T05:17:06.044Z,73.39
2018-07-11T05:17:46.552Z,73.2
2018-07-11T05:18:27.060Z,73.39
2018-07-11T05:19:07.589Z,73.01
2018-07-11T05:19:48.092Z,73.33
2018-07-11T05:20:28.607Z,77.48
2018-07-11T05:21:09.128Z,76.28
2018-07-11T05:21:49.664Z,80.43
2018-07-11T05:22:30.184Z,78.79
2018-07-11T05:23:10.761Z,83.61
2018-07-11T05:23:51.290Z,85.05
2018-07-11T05:24:31.797Z,85.47
2018-07-11T05:25:12.316Z,85.86
2018-07-11T05:25:52.847Z,86.69
2018-07-11T05:26:33.362Z,85.57
2018-07-11T05:27:13.897Z,84.42
2018-07-11T05:27:54.396Z,83.74
2018-07-11T05:28:34.910Z,83.07
2018-07-11T05:29:15.441Z,82.39
2018-07-11T05:29:55.962Z,82.74
2018-07-11T05:30:36.458Z,83.64
2018-07-11T05:31:16.988Z,84.09
2018-07-11T05:31:57.554Z,83.94
2018-07-11T05:32:38.066Z,82.39
2018-07-11T05:33:18.603Z,82.39
2018-07-11T05:33:59.155Z,82.87
2018-07-11T05:34:39.693Z,81.43
2018-07-11T05:35:20.200Z,82.39
2018-07-11T05:36:00.717Z,79.69
2018-07-11T05:36:41.241Z,83.74
2018-07-11T05:37:21.756Z,82.97
2018-07-11T05:38:02.268Z,81.04
2018-07-11T05:38:42.786Z,79.69
2018-07-11T05:39:23.339Z,79.69
2018-07-11T05:40:03.853Z,79.11
2018-07-11T05:40:44.377Z,81.24
2018-07-11T05:41:24.919Z,81.62
2018-07-11T05:42:05.563Z,78.21
2018-07-11T05:42:46.002Z,78.73
2018-07-11T05:43:26.518Z,79.08
2018-07-11T05:44:07.036Z,79.02
2018-07-11T05:44:47.560Z,79.11
2018-07-11T05:45:28.098Z,81.24
2018-07-11T05:46:08.617Z,79.02
2018-07-11T05:46:49.197Z,78.25
2018-07-11T05:47:29.650Z,76.42
2018-07-11T05:48:10.230Z,74.78
2018-07-11T05:48:50.736Z,75.07
2018-07-11T05:49:31.267Z,74.97
2018-07-11T05:50:11.783Z,73.53
2018-07-11T05:50:52.318Z,75.74
2018-07-11T05:51:32.919Z,74.58
2018-07-11T05:52:13.520Z,74.88
2018-07-11T05:52:53.942Z,79.31
2018-07-11T05:53:34.460Z,78.25
2018-07-11T05:54:14.967Z,77.13
2018-07-11T05:54:55.503Z,73.24
2018-07-11T05:55:36.131Z,71.83
2018-07-11T05:56:16.660Z,70.54
2018-07-11T05:56:57.177Z,70
2018-07-11T05:57:37.703Z,69.61
2018-07-11T05:58:18.245Z,71.06
2018-07-11T05:58:58.770Z,72.6
2018-07-11T05:59:39.289Z,75.97
2018-07-11T06:00:19.787Z,75.3
2018-07-11T06:01:00.400Z,75.43
2018-07-11T06:01:41.809Z,78.13
2018-07-11T06:02:22.309Z,76.4
2018-07-11T06:03:02.815Z,70
2018-07-11T06:03:43.334Z,68.87
2018-07-11T06:04:23.831Z,67.04
2018-07-11T06:05:04.360Z,68.19
2018-07-11T06:05:44.881Z,71.9
2018-07-11T06:06:25.413Z,71.8
2018-07-11T06:07:05.922Z,73.54
2018-07-11T06:07:46.466Z,70.94
2018-07-11T06:08:26.981Z,72.38
2018-07-11T06:09:07.494Z,75.95
2018-07-11T06:09:48.027Z,78.94
2018-07-11T06:10:28.580Z,74.02
2018-07-11T06:11:09.086Z,70.94
2018-07-11T06:11:49.601Z,74.89
2018-07-11T06:12:30.114Z,73.25
2018-07-11T06:13:10.717Z,72.09
2018-07-11T06:13:51.167Z,71.32
2018-07-11T06:14:31.679Z,77.78
2018-07-11T06:15:12.236Z,80.14
2018-07-11T06:15:52.777Z,74.73
2018-07-11T06:16:33.302Z,72.71
2018-07-11T06:17:13.820Z,78.99
2018-07-11T06:17:54.354Z,80.18
2018-07-11T06:18:34.857Z,73.03
2018-07-11T06:19:17.206Z,80.08
2018-07-11T06:19:57.728Z,73.61
2018-07-11T06:20:38.244Z,73.61
2018-07-11T06:21:18.768Z,70.52
2018-07-11T06:21:59.284Z,73.74
2018-07-11T06:22:39.821Z,69.78
2018-07-11T06:23:20.362Z,73.94
2018-07-11T06:24:00.882Z,65.14
2018-07-11T06:24:41.428Z,64.21
2018-07-11T06:25:21.941Z,72.14
2018-07-11T06:26:02.496Z,73.88
2018-07-11T06:26:43.000Z,73.3
2018-07-11T06:27:23.540Z,73.88
2018-07-11T06:28:04.069Z,68.85
2018-07-11T06:28:44.586Z,65.85
2018-07-11T06:29:25.122Z,69.72
2018-07-11T06:30:05.645Z,67.3
2018-07-11T06:30:46.174Z,68.98
2018-07-11T06:31:26.693Z,66.95
2018-07-11T06:32:07.211Z,66.17
2018-07-11T06:32:47.797Z,64.69
2018-07-11T06:33:28.383Z,66.91
2018-07-11T06:34:08.835Z,68.56
2018-07-11T06:34:49.349Z,65.66
2018-07-11T06:35:29.857Z,68.08
2018-07-11T06:36:10.455Z,69.04
2018-07-11T06:36:50.937Z,67.11
2018-07-11T06:37:31.498Z,65.47
2018-07-11T06:38:11.991Z,63.34
2018-07-11T06:38:52.516Z,63.85
2018-07-11T06:39:33.059Z,65.75
2018-07-11T06:40:13.616Z,60.63
2018-07-11T06:40:54.108Z,63.18
2018-07-11T06:41:34.630Z,63.85
2018-07-11T06:42:15.181Z,63.53
2018-07-11T06:42:55.704Z,61.05
2018-07-11T06:43:36.223Z,62.4
2018-07-11T06:44:16.774Z,62.11
2018-07-11T06:44:57.305Z,65.75
2018-07-11T06:45:37.825Z,62.95
2018-07-11T06:46:18.352Z,59.56
2018-07-11T06:46:58.890Z,59.31
2018-07-11T06:47:39.401Z,59.89
2018-07-11T06:48:19.947Z,65.82
2018-07-11T06:49:00.467Z,61.56
2018-07-11T06:49:40.993Z,63.11
2018-07-11T06:50:21.502Z,61.08
2018-07-11T06:51:01.996Z,63.69
2018-07-11T06:51:42.548Z,63.01
2018-07-11T06:52:23.042Z,65.24
2018-07-11T06:53:03.575Z,63.72
2018-07-11T06:53:44.110Z,59.36
2018-07-11T06:54:24.630Z,57.62
2018-07-11T06:55:05.178Z,59.56
2018-07-11T06:55:45.644Z,60.78
2018-07-11T06:56:26.159Z,68.43
2018-07-11T06:57:06.680Z,72.75
2018-07-11T06:57:47.213Z,74.01
2018-07-11T06:58:27.719Z,73.91
2018-07-11T06:59:08.250Z,69.85
2018-07-11T06:59:48.776Z,64.62
2018-07-11T07:00:29.298Z,62.3
2018-07-11T07:01:09.812Z,60.57
2018-07-11T07:01:50.337Z,62.69
2018-07-11T07:02:30.855Z,60.34
2018-07-11T07:03:11.370Z,63.18
2018-07-11T07:03:51.900Z,68.66
2018-07-11T07:04:32.409Z,71.75
2018-07-11T07:05:12.918Z,72.14
2018-07-11T07:05:53.437Z,72.81
2018-07-11T07:06:33.962Z,68.66
2018-07-11T07:07:14.482Z,65.53
2018-07-11T07:07:55.005Z,67.17
2018-07-11T07:08:35.660Z,67.36
2018-07-11T07:09:16.181Z,68.43
2018-07-11T07:09:56.698Z,66.75
2018-07-11T07:10:37.245Z,66.94
2018-07-11T07:11:17.754Z,65.69
2018-07-11T07:11:58.283Z,66.94
2018-07-11T07:12:38.832Z,69.26
2018-07-11T07:13:19.346Z,70.14
2018-07-11T07:13:59.865Z,66.27
2018-07-11T07:14:40.364Z,62.89
2018-07-11T07:15:20.887Z,61.54
2018-07-11T07:16:01.390Z,62.6
2018-07-11T07:16:41.895Z,61.83
2018-07-11T07:17:22.500Z,63.47
2018-07-11T07:18:03.021Z,64.72
2018-07-11T07:18:43.583Z,62.66
2018-07-11T07:19:24.129Z,63.28
2018-07-11T07:20:04.635Z,69.74
2018-07-11T07:20:45.181Z,73.28
2018-07-11T07:21:25.686Z,73.67
2018-07-11T07:22:06.214Z,73.58
2018-07-11T07:22:46.729Z,69.9
2018-07-11T07:23:27.247Z,67.11
2018-07-11T07:24:07.766Z,72.8
2018-07-11T07:24:48.293Z,68.07
2018-07-11T07:25:28.812Z,66.05
2018-07-11T07:26:09.352Z,71.45
2018-07-11T07:26:49.877Z,67.49
2018-07-11T07:27:30.401Z,68.65
2018-07-11T07:28:10.902Z,71.16
2018-07-11T07:28:51.482Z,73
2018-07-11T07:29:32.041Z,71.68
2018-07-11T07:30:12.526Z,71.68
2018-07-11T07:30:53.041Z,74.96
2018-07-11T07:31:33.571Z,73.8
2018-07-11T07:32:14.104Z,69.65
2018-07-11T07:32:54.624Z,65.4
2018-07-11T07:33:35.151Z,67.24
2018-07-11T07:34:15.671Z,65.4
2018-07-11T07:34:56.312Z,63.56
2018-07-11T07:35:36.831Z,62.98
2018-07-11T07:36:17.378Z,63.37
2018-07-11T07:36:57.919Z,63.08
2018-07-11T07:37:38.434Z,62.53
2018-07-11T07:38:18.943Z,60.6
2018-07-11T07:38:59.459Z,63.31
2018-07-11T07:39:39.967Z,68.91
2018-07-11T07:40:20.507Z,71.72
2018-07-11T07:41:01.041Z,71.04
2018-07-11T07:41:41.534Z,71.23
2018-07-11T07:42:22.039Z,71.42
2018-07-11T07:43:02.553Z,71.04
2018-07-11T07:43:43.079Z,71.91
2018-07-11T07:44:23.595Z,73.65
2018-07-11T07:45:04.115Z,74.9
2018-07-11T07:45:44.636Z,73.84
2018-07-11T07:46:25.155Z,75.2
2018-07-11T07:47:05.720Z,74.9
2018-07-11T07:47:46.220Z,73.74
2018-07-11T07:48:26.702Z,70.65
2018-07-11T07:49:07.205Z,69.98
2018-07-11T07:49:47.730Z,68.14
2018-07-11T07:50:28.235Z,68.33
2018-07-11T07:51:08.768Z,67.85
2018-07-11T07:51:49.282Z,68.62
2018-07-11T07:52:29.807Z,69.33
2018-07-11T07:53:10.351Z,70.3
2018-07-11T07:53:50.882Z,70.59
2018-07-11T07:54:31.381Z,68.17
2018-07-11T07:55:11.886Z,68.08
2018-07-11T07:55:52.402Z,69.82
2018-07-11T07:56:32.913Z,69.72
2018-07-11T07:57:13.455Z,72.24
2018-07-11T07:57:53.983Z,73.55
2018-07-11T07:58:34.501Z,73.74
2018-07-11T07:59:15.014Z,73.36
2018-07-11T07:59:55.522Z,72.88
2018-07-11T08:00:36.111Z,72.78
2018-07-11T08:01:16.546Z,73.65
2018-07-11T08:01:57.097Z,71.42
2018-07-11T08:02:37.625Z,67.94
2018-07-11T08:03:18.111Z,64.85
2018-07-11T08:03:58.651Z,68.52
2018-07-11T08:04:39.149Z,72.42
2018-07-11T08:05:19.683Z,72.42
2018-07-11T08:06:00.190Z,73.01
2018-07-11T08:06:40.771Z,67.4
2018-07-11T08:07:21.340Z,67.05
2018-07-11T08:08:01.891Z,64.72
2018-07-11T08:08:42.423Z,62.88
2018-07-11T08:09:22.958Z,63.37
2018-07-11T08:10:03.511Z,62.5
2018-07-11T08:10:44.050Z,59.38
2018-07-11T08:11:24.597Z,61.98
2018-07-11T08:12:05.102Z,65.56
2018-07-11T08:12:45.744Z,68.08
2018-07-11T08:13:26.153Z,69.43
2018-07-11T08:14:06.690Z,63.21
2018-07-11T08:14:47.212Z,68.14
2018-07-11T08:15:27.748Z,70.46
2018-07-11T08:16:08.267Z,68.72
2018-07-11T08:16:48.794Z,68.33
2018-07-11T08:17:29.317Z,66.4
2018-07-11T08:18:09.874Z,67.56
2018-07-11T08:18:50.410Z,63.79
2018-07-11T08:19:30.929Z,66.11
2018-07-11T08:20:11.433Z,63.5
2018-07-11T08:20:51.953Z,59.92
2018-07-11T08:21:32.548Z,59.63
2018-07-11T08:22:13.057Z,60.69
2018-07-11T08:22:53.587Z,61.27
2018-07-11T08:23:34.122Z,59.53
2018-07-11T08:24:14.658Z,60.76
2018-07-11T08:24:55.186Z,60.41
2018-07-11T08:25:35.721Z,63.5
2018-07-11T08:26:16.212Z,65.3
2018-07-11T08:26:56.782Z,65.53
2018-07-11T08:27:37.304Z,64.76
2018-07-11T08:28:17.909Z,67.14
2018-07-11T08:28:58.321Z,65.4
2018-07-11T08:29:39.806Z,66.94
2018-07-11T08:30:20.280Z,61.44
2018-07-11T08:31:00.812Z,64.53
2018-07-11T08:31:41.406Z,63.56
2018-07-11T08:32:21.870Z,64.92
2018-07-11T08:33:02.387Z,61.27
2018-07-11T08:33:42.915Z,59.83
2018-07-11T08:34:23.491Z,66.69
2018-07-11T08:35:04.049Z,70.07
2018-07-11T08:35:44.547Z,63.69
2018-07-11T08:36:25.051Z,60.63
2018-07-11T08:37:05.564Z,61.3
2018-07-11T08:37:46.067Z,62.95
2018-07-11T08:38:26.582Z,67.01
2018-07-11T08:39:07.108Z,69.88
2018-07-11T08:39:47.616Z,70.94
2018-07-11T08:40:28.157Z,68.95
2018-07-11T08:41:08.649Z,68.85
2018-07-11T08:41:49.202Z,68.17
2018-07-11T08:42:29.693Z,62.85
2018-07-11T08:43:10.257Z,60.53
2018-07-11T08:43:50.774Z,62.18
2018-07-11T08:44:31.307Z,61.89
2018-07-11T08:45:11.829Z,60.44